sensor_id;sensor_type;location;lat;lon;timestamp;temperature;humidity
12115;DHT22;6121;49.810;6.418;2023-10-09T00:01:45;12.60;99.90
12115;DHT22;6121;49.810;6.418;2023-10-09T00:04:12;12.70;99.90
12115;DHT22;6121;49.810;6.418;2023-10-09T00:06:40;12.60;99.90
12115;DHT22;6121;49.810;6.418;2023-10-09T00:09:08;12.50;99.90
12115;DHT22;6121;49.810;6.418;2023-10-09T00:11:49;12.40;99.90
12115;DHT22;6121;49.810;6.418;2023-10-09T00:14:19;12.60;99.90
12115;DHT22;6121;49.810;6.418;2023-10-09T00:16:45;12.60;99.90
12115;DHT22;6121;49.810;6.418;2023-10-09T00:19:15;12.70;99.90
12115;DHT22;6121;49.810;6.418;2023-10-09T00:21:56;12.60;99.90
12115;DHT22;6121;49.810;6.418;2023-10-09T00:24:24;12.70;99.90
12115;DHT22;6121;49.810;6.418;2023-10-09T00:26:54;12.60;99.90
12115;DHT22;6121;49.810;6.418;2023-10-09T00:29:52;12.60;99.90
12115;DHT22;6121;49.810;6.418;2023-10-09T00:32:22;12.70;99.90
12115;DHT22;6121;49.810;6.418;2023-10-09T00:34:50;12.60;99.90
12115;DHT22;6121;49.810;6.418;2023-10-09T00:37:17;12.70;99.90
12115;DHT22;6121;49.810;6.418;2023-10-09T00:39:48;12.80;99.90
12115;DHT22;6121;49.810;6.418;2023-10-09T00:42:22;12.60;99.90
12115;DHT22;6121;49.810;6.418;2023-10-09T00:45:00;12.60;99.90
12115;DHT22;6121;49.810;6.418;2023-10-09T00:47:31;13.10;99.90
12115;DHT22;6121;49.810;6.418;2023-10-09T00:50:05;12.60;99.90
12115;DHT22;6121;49.810;6.418;2023-10-09T00:52:52;12.70;99.90
12115;DHT22;6121;49.810;6.418;2023-10-09T00:55:27;12.70;99.90
12115;DHT22;6121;49.810;6.418;2023-10-09T00:58:05;12.70;99.90
12115;DHT22;6121;49.810;6.418;2023-10-09T01:00:36;12.60;99.90
12115;DHT22;6121;49.810;6.418;2023-10-09T01:03:13;12.60;99.90
12115;DHT22;6121;49.810;6.418;2023-10-09T01:06:01;12.60;99.90
12115;DHT22;6121;49.810;6.418;2023-10-09T01:08:38;12.70;99.90
12115;DHT22;6121;49.810;6.418;2023-10-09T01:11:14;12.60;99.90
12115;DHT22;6121;49.810;6.418;2023-10-09T01:13:46;12.70;99.90
12115;DHT22;6121;49.810;6.418;2023-10-09T01:16:12;12.70;99.90
12115;DHT22;6121;49.810;6.418;2023-10-09T01:18:49;12.70;99.90
12115;DHT22;6121;49.810;6.418;2023-10-09T01:21:16;12.60;99.90
12115;DHT22;6121;49.810;6.418;2023-10-09T01:23:43;13.60;99.90
12115;DHT22;6121;49.810;6.418;2023-10-09T01:29:12;12.80;99.90
12115;DHT22;6121;49.810;6.418;2023-10-09T01:31:52;12.70;99.90
12115;DHT22;6121;49.810;6.418;2023-10-09T01:34:26;12.80;99.90
12115;DHT22;6121;49.810;6.418;2023-10-09T01:37:15;12.70;99.90
12115;DHT22;6121;49.810;6.418;2023-10-09T01:39:58;12.70;99.90
12115;DHT22;6121;49.810;6.418;2023-10-09T01:42:25;12.70;99.90
12115;DHT22;6121;49.810;6.418;2023-10-09T01:45:13;12.70;99.90
12115;DHT22;6121;49.810;6.418;2023-10-09T01:47:53;12.80;99.90
12115;DHT22;6121;49.810;6.418;2023-10-09T01:50:22;12.80;99.90
12115;DHT22;6121;49.810;6.418;2023-10-09T01:52:56;12.60;99.90
12115;DHT22;6121;49.810;6.418;2023-10-09T01:55:23;12.60;99.90
12115;DHT22;6121;49.810;6.418;2023-10-09T01:58:03;12.60;99.90
12115;DHT22;6121;49.810;6.418;2023-10-09T02:00:47;12.60;99.90
12115;DHT22;6121;49.810;6.418;2023-10-09T02:03:23;12.70;99.90
12115;DHT22;6121;49.810;6.418;2023-10-09T02:05:50;12.60;99.90
12115;DHT22;6121;49.810;6.418;2023-10-09T02:08:19;12.70;99.90
12115;DHT22;6121;49.810;6.418;2023-10-09T02:10:53;12.50;99.90
12115;DHT22;6121;49.810;6.418;2023-10-09T02:13:22;12.50;99.90
12115;DHT22;6121;49.810;6.418;2023-10-09T02:15:58;12.50;99.90
12115;DHT22;6121;49.810;6.418;2023-10-09T02:18:40;12.50;99.90
12115;DHT22;6121;49.810;6.418;2023-10-09T02:21:18;12.50;99.90
12115;DHT22;6121;49.810;6.418;2023-10-09T02:23:58;12.50;99.90
12115;DHT22;6121;49.810;6.418;2023-10-09T02:26:28;12.50;99.90
12115;DHT22;6121;49.810;6.418;2023-10-09T02:29:14;12.50;99.90
12115;DHT22;6121;49.810;6.418;2023-10-09T02:31:40;12.80;99.90
12115;DHT22;6121;49.810;6.418;2023-10-09T02:34:07;12.40;99.90
12115;DHT22;6121;49.810;6.418;2023-10-09T02:36:36;12.40;99.90
12115;DHT22;6121;49.810;6.418;2023-10-09T02:39:10;12.50;99.90
12115;DHT22;6121;49.810;6.418;2023-10-09T02:41:58;12.50;99.90
12115;DHT22;6121;49.810;6.418;2023-10-09T02:44:38;12.20;99.90
12115;DHT22;6121;49.810;6.418;2023-10-09T02:47:24;12.70;99.90
12115;DHT22;6121;49.810;6.418;2023-10-09T02:49:55;12.50;99.90
12115;DHT22;6121;49.810;6.418;2023-10-09T02:52:26;13.00;99.90
12115;DHT22;6121;49.810;6.418;2023-10-09T02:54:58;12.40;99.90
12115;DHT22;6121;49.810;6.418;2023-10-09T02:57:33;12.40;99.90
12115;DHT22;6121;49.810;6.418;2023-10-09T03:00:03;12.60;99.90
12115;DHT22;6121;49.810;6.418;2023-10-09T03:02:34;12.50;99.90
12115;DHT22;6121;49.810;6.418;2023-10-09T03:05:01;12.80;99.90
12115;DHT22;6121;49.810;6.418;2023-10-09T03:07:29;12.50;99.90
12115;DHT22;6121;49.810;6.418;2023-10-09T03:09:55;12.50;99.90
12115;DHT22;6121;49.810;6.418;2023-10-09T03:12:21;12.40;99.90
12115;DHT22;6121;49.810;6.418;2023-10-09T03:14:52;12.40;99.90
12115;DHT22;6121;49.810;6.418;2023-10-09T03:17:20;12.40;99.90
12115;DHT22;6121;49.810;6.418;2023-10-09T03:19:46;12.40;99.90
12115;DHT22;6121;49.810;6.418;2023-10-09T03:22:12;12.50;99.90
12115;DHT22;6121;49.810;6.418;2023-10-09T03:24:39;12.40;99.90
12115;DHT22;6121;49.810;6.418;2023-10-09T03:27:10;12.50;99.90
12115;DHT22;6121;49.810;6.418;2023-10-09T03:29:36;12.40;99.90
12115;DHT22;6121;49.810;6.418;2023-10-09T03:32:03;12.40;99.90
12115;DHT22;6121;49.810;6.418;2023-10-09T03:34:29;12.40;99.90
12115;DHT22;6121;49.810;6.418;2023-10-09T03:36:56;12.40;99.90
12115;DHT22;6121;49.810;6.418;2023-10-09T03:39:32;12.30;99.90
12115;DHT22;6121;49.810;6.418;2023-10-09T03:42:02;12.50;99.90
12115;DHT22;6121;49.810;6.418;2023-10-09T03:44:34;12.40;99.90
12115;DHT22;6121;49.810;6.418;2023-10-09T03:47:04;12.40;99.90
12115;DHT22;6121;49.810;6.418;2023-10-09T03:49:30;12.80;99.90
12115;DHT22;6121;49.810;6.418;2023-10-09T03:51:57;12.40;99.90
12115;DHT22;6121;49.810;6.418;2023-10-09T03:54:25;13.00;99.90
12115;DHT22;6121;49.810;6.418;2023-10-09T03:56:50;12.40;99.90
12115;DHT22;6121;49.810;6.418;2023-10-09T03:59:17;12.40;99.90
12115;DHT22;6121;49.810;6.418;2023-10-09T04:01:46;12.30;99.90
12115;DHT22;6121;49.810;6.418;2023-10-09T04:04:14;12.30;99.90
12115;DHT22;6121;49.810;6.418;2023-10-09T04:06:40;12.40;99.90
12115;DHT22;6121;49.810;6.418;2023-10-09T04:09:09;12.50;99.90
12115;DHT22;6121;49.810;6.418;2023-10-09T04:11:48;12.50;99.90
12115;DHT22;6121;49.810;6.418;2023-10-09T04:14:16;12.40;99.90
12115;DHT22;6121;49.810;6.418;2023-10-09T04:16:58;12.40;99.90
12115;DHT22;6121;49.810;6.418;2023-10-09T04:19:50;13.40;99.90
12115;DHT22;6121;49.810;6.418;2023-10-09T04:22:36;12.40;99.90
12115;DHT22;6121;49.810;6.418;2023-10-09T04:25:08;12.50;99.90
12115;DHT22;6121;49.810;6.418;2023-10-09T04:27:43;12.50;99.90
12115;DHT22;6121;49.810;6.418;2023-10-09T04:30:10;12.40;99.90
12115;DHT22;6121;49.810;6.418;2023-10-09T04:32:44;12.50;99.90
12115;DHT22;6121;49.810;6.418;2023-10-09T04:35:11;12.40;99.90
12115;DHT22;6121;49.810;6.418;2023-10-09T04:37:49;12.50;99.90
12115;DHT22;6121;49.810;6.418;2023-10-09T04:40:22;12.80;99.90
12115;DHT22;6121;49.810;6.418;2023-10-09T04:43:06;12.30;99.90
12115;DHT22;6121;49.810;6.418;2023-10-09T04:45:38;12.30;99.90
12115;DHT22;6121;49.810;6.418;2023-10-09T04:48:23;12.40;99.90
12115;DHT22;6121;49.810;6.418;2023-10-09T04:51:05;12.40;99.90
12115;DHT22;6121;49.810;6.418;2023-10-09T04:53:48;12.40;99.90
12115;DHT22;6121;49.810;6.418;2023-10-09T04:56:25;12.30;99.90
12115;DHT22;6121;49.810;6.418;2023-10-09T04:58:57;12.30;99.90
12115;DHT22;6121;49.810;6.418;2023-10-09T05:01:30;12.30;99.90
12115;DHT22;6121;49.810;6.418;2023-10-09T05:04:03;12.30;99.90
12115;DHT22;6121;49.810;6.418;2023-10-09T05:06:30;12.70;99.90
12115;DHT22;6121;49.810;6.418;2023-10-09T05:09:09;12.40;99.90
12115;DHT22;6121;49.810;6.418;2023-10-09T05:11:35;12.40;99.90
12115;DHT22;6121;49.810;6.418;2023-10-09T05:14:22;12.50;99.90
12115;DHT22;6121;49.810;6.418;2023-10-09T05:17:07;12.40;99.90
12115;DHT22;6121;49.810;6.418;2023-10-09T05:19:41;12.40;99.90
12115;DHT22;6121;49.810;6.418;2023-10-09T05:22:42;12.40;99.90
12115;DHT22;6121;49.810;6.418;2023-10-09T05:25:18;12.60;99.90
12115;DHT22;6121;49.810;6.418;2023-10-09T05:28:04;12.30;99.90
12115;DHT22;6121;49.810;6.418;2023-10-09T05:30:50;12.40;99.90
12115;DHT22;6121;49.810;6.418;2023-10-09T05:33:28;12.50;99.90
12115;DHT22;6121;49.810;6.418;2023-10-09T05:35:54;12.40;99.90
12115;DHT22;6121;49.810;6.418;2023-10-09T05:38:39;12.30;99.90
12115;DHT22;6121;49.810;6.418;2023-10-09T05:41:12;12.30;99.90
12115;DHT22;6121;49.810;6.418;2023-10-09T05:44:03;12.30;99.90
12115;DHT22;6121;49.810;6.418;2023-10-09T05:47:07;12.30;99.90
12115;DHT22;6121;49.810;6.418;2023-10-09T05:49:55;12.60;99.90
12115;DHT22;6121;49.810;6.418;2023-10-09T05:52:27;12.30;99.90
12115;DHT22;6121;49.810;6.418;2023-10-09T05:55:19;12.30;99.90
12115;DHT22;6121;49.810;6.418;2023-10-09T05:58:05;12.20;99.90
12115;DHT22;6121;49.810;6.418;2023-10-09T06:00:50;12.40;99.90
12115;DHT22;6121;49.810;6.418;2023-10-09T06:03:31;12.20;99.90
12115;DHT22;6121;49.810;6.418;2023-10-09T06:06:22;12.20;99.90
12115;DHT22;6121;49.810;6.418;2023-10-09T06:09:14;12.30;99.90
12115;DHT22;6121;49.810;6.418;2023-10-09T06:11:44;12.30;99.90
12115;DHT22;6121;49.810;6.418;2023-10-09T06:14:24;12.30;99.90
12115;DHT22;6121;49.810;6.418;2023-10-09T06:16:52;12.20;99.90
12115;DHT22;6121;49.810;6.418;2023-10-09T06:19:37;12.20;99.90
12115;DHT22;6121;49.810;6.418;2023-10-09T06:22:09;12.30;99.90
12115;DHT22;6121;49.810;6.418;2023-10-09T06:24:54;12.30;99.90
12115;DHT22;6121;49.810;6.418;2023-10-09T06:27:21;12.20;99.90
12115;DHT22;6121;49.810;6.418;2023-10-09T06:29:51;12.30;99.90
12115;DHT22;6121;49.810;6.418;2023-10-09T06:32:18;12.20;99.90
12115;DHT22;6121;49.810;6.418;2023-10-09T06:34:52;12.90;99.90
12115;DHT22;6121;49.810;6.418;2023-10-09T06:37:19;12.40;99.90
12115;DHT22;6121;49.810;6.418;2023-10-09T06:39:52;12.30;99.90
12115;DHT22;6121;49.810;6.418;2023-10-09T06:42:22;12.70;99.90
12115;DHT22;6121;49.810;6.418;2023-10-09T06:45:12;12.40;99.90
12115;DHT22;6121;49.810;6.418;2023-10-09T06:47:42;12.30;99.90
12115;DHT22;6121;49.810;6.418;2023-10-09T06:50:19;12.90;99.90
12115;DHT22;6121;49.810;6.418;2023-10-09T06:52:54;12.40;99.90
12115;DHT22;6121;49.810;6.418;2023-10-09T06:55:24;12.50;99.90
12115;DHT22;6121;49.810;6.418;2023-10-09T06:58:01;12.40;99.90
12115;DHT22;6121;49.810;6.418;2023-10-09T07:00:42;12.60;99.90
12115;DHT22;6121;49.810;6.418;2023-10-09T07:03:27;12.50;99.90
12115;DHT22;6121;49.810;6.418;2023-10-09T07:06:05;12.50;99.90
12115;DHT22;6121;49.810;6.418;2023-10-09T07:08:36;12.70;99.90
12115;DHT22;6121;49.810;6.418;2023-10-09T07:11:23;12.50;99.90
12115;DHT22;6121;49.810;6.418;2023-10-09T07:14:21;13.20;99.90
12115;DHT22;6121;49.810;6.418;2023-10-09T07:19:26;12.60;99.90
12115;DHT22;6121;49.810;6.418;2023-10-09T07:22:22;12.60;99.90
12115;DHT22;6121;49.810;6.418;2023-10-09T07:24:53;12.60;99.90
12115;DHT22;6121;49.810;6.418;2023-10-09T07:27:29;12.60;99.90
12115;DHT22;6121;49.810;6.418;2023-10-09T07:30:16;12.70;99.90
12115;DHT22;6121;49.810;6.418;2023-10-09T07:35:48;12.90;99.90
12115;DHT22;6121;49.810;6.418;2023-10-09T07:38:21;13.10;99.90
12115;DHT22;6121;49.810;6.418;2023-10-09T07:41:02;13.50;99.90
12115;DHT22;6121;49.810;6.418;2023-10-09T07:43:38;13.00;99.90
12115;DHT22;6121;49.810;6.418;2023-10-09T07:46:06;13.00;99.90
12115;DHT22;6121;49.810;6.418;2023-10-09T07:48:51;13.30;99.90
12115;DHT22;6121;49.810;6.418;2023-10-09T07:51:20;13.20;99.90
12115;DHT22;6121;49.810;6.418;2023-10-09T07:53:50;13.20;99.90
12115;DHT22;6121;49.810;6.418;2023-10-09T07:56:25;13.50;99.90
12115;DHT22;6121;49.810;6.418;2023-10-09T07:58:58;13.30;99.90
12115;DHT22;6121;49.810;6.418;2023-10-09T08:01:26;13.50;99.90
12115;DHT22;6121;49.810;6.418;2023-10-09T08:03:52;13.80;99.90
12115;DHT22;6121;49.810;6.418;2023-10-09T08:06:27;13.80;99.90
12115;DHT22;6121;49.810;6.418;2023-10-09T08:09:11;14.00;99.90
12115;DHT22;6121;49.810;6.418;2023-10-09T08:11:45;14.20;99.90
12115;DHT22;6121;49.810;6.418;2023-10-09T08:14:12;14.90;99.90
12115;DHT22;6121;49.810;6.418;2023-10-09T08:16:56;14.80;99.90
12115;DHT22;6121;49.810;6.418;2023-10-09T08:19:42;14.70;99.90
12115;DHT22;6121;49.810;6.418;2023-10-09T08:22:29;14.70;99.90
12115;DHT22;6121;49.810;6.418;2023-10-09T08:24:56;14.70;99.90
12115;DHT22;6121;49.810;6.418;2023-10-09T08:27:28;14.70;99.90
12115;DHT22;6121;49.810;6.418;2023-10-09T08:30:02;14.70;99.90
12115;DHT22;6121;49.810;6.418;2023-10-09T08:32:44;14.60;99.90
12115;DHT22;6121;49.810;6.418;2023-10-09T08:35:30;14.30;99.90
12115;DHT22;6121;49.810;6.418;2023-10-09T08:37:57;14.70;99.90
12115;DHT22;6121;49.810;6.418;2023-10-09T08:40:39;14.60;99.90
12115;DHT22;6121;49.810;6.418;2023-10-09T08:43:09;14.60;99.90
12115;DHT22;6121;49.810;6.418;2023-10-09T08:45:40;15.20;99.90
12115;DHT22;6121;49.810;6.418;2023-10-09T08:48:09;14.80;99.90
12115;DHT22;6121;49.810;6.418;2023-10-09T08:50:45;15.10;99.90
12115;DHT22;6121;49.810;6.418;2023-10-09T08:53:12;15.00;99.90
12115;DHT22;6121;49.810;6.418;2023-10-09T08:55:38;15.20;99.90
12115;DHT22;6121;49.810;6.418;2023-10-09T08:58:05;15.20;99.90
12115;DHT22;6121;49.810;6.418;2023-10-09T09:00:49;15.40;99.90
12115;DHT22;6121;49.810;6.418;2023-10-09T09:03:17;15.20;99.90
12115;DHT22;6121;49.810;6.418;2023-10-09T09:05:48;15.50;99.90
12115;DHT22;6121;49.810;6.418;2023-10-09T09:08:25;15.40;99.90
12115;DHT22;6121;49.810;6.418;2023-10-09T09:13:25;15.30;99.90
12115;DHT22;6121;49.810;6.418;2023-10-09T09:15:58;15.40;99.90
12115;DHT22;6121;49.810;6.418;2023-10-09T09:18:24;15.30;99.90
12115;DHT22;6121;49.810;6.418;2023-10-09T09:20:58;15.70;99.90
12115;DHT22;6121;49.810;6.418;2023-10-09T09:23:24;15.60;99.90
12115;DHT22;6121;49.810;6.418;2023-10-09T09:25:51;15.50;99.90
12115;DHT22;6121;49.810;6.418;2023-10-09T09:28:33;15.50;99.90
12115;DHT22;6121;49.810;6.418;2023-10-09T09:31:08;15.60;99.90
12115;DHT22;6121;49.810;6.418;2023-10-09T09:33:41;15.90;99.90
12115;DHT22;6121;49.810;6.418;2023-10-09T09:36:08;15.80;99.90
12115;DHT22;6121;49.810;6.418;2023-10-09T09:38:37;15.90;99.90
12115;DHT22;6121;49.810;6.418;2023-10-09T09:41:17;16.10;99.90
12115;DHT22;6121;49.810;6.418;2023-10-09T09:43:59;16.50;99.90
12115;DHT22;6121;49.810;6.418;2023-10-09T09:46:34;16.70;99.90
12115;DHT22;6121;49.810;6.418;2023-10-09T09:49:01;16.90;99.90
12115;DHT22;6121;49.810;6.418;2023-10-09T09:51:31;17.00;99.90
12115;DHT22;6121;49.810;6.418;2023-10-09T09:53:57;17.20;99.90
12115;DHT22;6121;49.810;6.418;2023-10-09T09:56:28;17.20;99.90
12115;DHT22;6121;49.810;6.418;2023-10-09T09:58:57;17.50;99.90
12115;DHT22;6121;49.810;6.418;2023-10-09T10:01:30;17.50;99.90
12115;DHT22;6121;49.810;6.418;2023-10-09T10:04:24;17.70;99.90
12115;DHT22;6121;49.810;6.418;2023-10-09T10:06:52;18.10;99.90
12115;DHT22;6121;49.810;6.418;2023-10-09T10:09:40;18.40;99.90
12115;DHT22;6121;49.810;6.418;2023-10-09T10:12:09;18.60;99.90
12115;DHT22;6121;49.810;6.418;2023-10-09T10:14:56;18.80;99.90
12115;DHT22;6121;49.810;6.418;2023-10-09T10:17:25;19.70;99.90
12115;DHT22;6121;49.810;6.418;2023-10-09T10:20:00;20.00;99.90
12115;DHT22;6121;49.810;6.418;2023-10-09T10:22:30;20.20;99.90
12115;DHT22;6121;49.810;6.418;2023-10-09T10:24:56;20.20;99.90
12115;DHT22;6121;49.810;6.418;2023-10-09T10:27:35;20.70;99.90
12115;DHT22;6121;49.810;6.418;2023-10-09T10:32:59;21.00;99.90
12115;DHT22;6121;49.810;6.418;2023-10-09T10:35:38;21.70;99.90
12115;DHT22;6121;49.810;6.418;2023-10-09T10:40:47;23.40;99.90
12115;DHT22;6121;49.810;6.418;2023-10-09T10:43:23;23.20;99.90
12115;DHT22;6121;49.810;6.418;2023-10-09T10:46:08;23.60;99.90
12115;DHT22;6121;49.810;6.418;2023-10-09T10:48:53;23.70;99.90
12115;DHT22;6121;49.810;6.418;2023-10-09T10:51:40;23.80;99.90
12115;DHT22;6121;49.810;6.418;2023-10-09T10:54:09;23.80;99.90
12115;DHT22;6121;49.810;6.418;2023-10-09T10:57:19;24.00;99.90
12115;DHT22;6121;49.810;6.418;2023-10-09T10:59:45;24.00;99.90
12115;DHT22;6121;49.810;6.418;2023-10-09T11:02:12;24.10;99.90
12115;DHT22;6121;49.810;6.418;2023-10-09T11:04:38;24.50;99.90
12115;DHT22;6121;49.810;6.418;2023-10-09T11:07:11;23.80;99.90
12115;DHT22;6121;49.810;6.418;2023-10-09T11:09:50;24.20;99.90
12115;DHT22;6121;49.810;6.418;2023-10-09T11:15:31;24.70;99.90
12115;DHT22;6121;49.810;6.418;2023-10-09T11:18:11;25.30;99.90
12115;DHT22;6121;49.810;6.418;2023-10-09T11:20:57;25.40;99.90
12115;DHT22;6121;49.810;6.418;2023-10-09T11:23:30;25.30;99.90
12115;DHT22;6121;49.810;6.418;2023-10-09T11:26:05;25.60;99.90
12115;DHT22;6121;49.810;6.418;2023-10-09T11:29:14;26.10;99.90
12115;DHT22;6121;49.810;6.418;2023-10-09T11:32:05;26.70;99.90
12115;DHT22;6121;49.810;6.418;2023-10-09T11:34:33;27.30;99.90
12115;DHT22;6121;49.810;6.418;2023-10-09T11:37:15;27.80;99.90
12115;DHT22;6121;49.810;6.418;2023-10-09T11:39:41;28.10;99.90
12115;DHT22;6121;49.810;6.418;2023-10-09T11:42:21;28.00;99.90
12115;DHT22;6121;49.810;6.418;2023-10-09T11:45:03;27.90;99.90
12115;DHT22;6121;49.810;6.418;2023-10-09T11:47:54;28.10;98.90
12115;DHT22;6121;49.810;6.418;2023-10-09T11:50:43;28.40;98.60
12115;DHT22;6121;49.810;6.418;2023-10-09T11:53:16;28.90;98.10
12115;DHT22;6121;49.810;6.418;2023-10-09T11:55:59;28.70;96.50
12115;DHT22;6121;49.810;6.418;2023-10-09T11:58:25;28.40;97.10
12115;DHT22;6121;49.810;6.418;2023-10-09T12:00:53;28.20;97.00
12115;DHT22;6121;49.810;6.418;2023-10-09T12:03:29;27.80;95.50
12115;DHT22;6121;49.810;6.418;2023-10-09T12:05:56;27.70;95.60
12115;DHT22;6121;49.810;6.418;2023-10-09T12:08:26;27.40;95.90
12115;DHT22;6121;49.810;6.418;2023-10-09T12:10:55;27.00;95.90
12115;DHT22;6121;49.810;6.418;2023-10-09T12:13:22;27.00;96.30
12115;DHT22;6121;49.810;6.418;2023-10-09T12:15:50;27.20;96.70
12115;DHT22;6121;49.810;6.418;2023-10-09T12:18:17;27.10;95.60
12115;DHT22;6121;49.810;6.418;2023-10-09T12:20:44;26.80;95.50
12115;DHT22;6121;49.810;6.418;2023-10-09T12:23:21;26.80;95.80
12115;DHT22;6121;49.810;6.418;2023-10-09T12:25:51;26.60;95.40
12115;DHT22;6121;49.810;6.418;2023-10-09T12:28:22;26.20;94.80
12115;DHT22;6121;49.810;6.418;2023-10-09T12:30:49;26.30;95.30
12115;DHT22;6121;49.810;6.418;2023-10-09T12:33:19;26.10;94.80
12115;DHT22;6121;49.810;6.418;2023-10-09T12:35:45;26.10;95.60
12115;DHT22;6121;49.810;6.418;2023-10-09T12:38:13;26.20;95.70
12115;DHT22;6121;49.810;6.418;2023-10-09T12:40:44;26.20;96.10
12115;DHT22;6121;49.810;6.418;2023-10-09T12:43:19;26.30;95.70
12115;DHT22;6121;49.810;6.418;2023-10-09T12:45:46;26.20;95.60
12115;DHT22;6121;49.810;6.418;2023-10-09T12:48:12;26.00;95.40
12115;DHT22;6121;49.810;6.418;2023-10-09T12:50:40;25.90;95.40
12115;DHT22;6121;49.810;6.418;2023-10-09T12:53:11;26.20;95.20
12115;DHT22;6121;49.810;6.418;2023-10-09T12:55:37;26.20;95.40
12115;DHT22;6121;49.810;6.418;2023-10-09T12:58:07;26.40;95.70
12115;DHT22;6121;49.810;6.418;2023-10-09T13:00:37;26.30;95.60
12115;DHT22;6121;49.810;6.418;2023-10-09T13:03:09;26.10;95.50
12115;DHT22;6121;49.810;6.418;2023-10-09T13:05:45;26.10;95.50
12115;DHT22;6121;49.810;6.418;2023-10-09T13:08:28;26.00;95.30
12115;DHT22;6121;49.810;6.418;2023-10-09T13:11:18;26.00;95.10
12115;DHT22;6121;49.810;6.418;2023-10-09T13:13:46;25.90;94.70
12115;DHT22;6121;49.810;6.418;2023-10-09T13:16:18;25.80;94.70
12115;DHT22;6121;49.810;6.418;2023-10-09T13:18:55;26.00;95.00
12115;DHT22;6121;49.810;6.418;2023-10-09T13:21:23;25.50;94.90
12115;DHT22;6121;49.810;6.418;2023-10-09T13:23:50;25.80;95.10
12115;DHT22;6121;49.810;6.418;2023-10-09T13:26:17;25.80;95.30
12115;DHT22;6121;49.810;6.418;2023-10-09T13:28:53;25.80;95.30
12115;DHT22;6121;49.810;6.418;2023-10-09T13:31:21;25.70;95.10
12115;DHT22;6121;49.810;6.418;2023-10-09T13:33:48;25.50;95.20
12115;DHT22;6121;49.810;6.418;2023-10-09T13:36:15;25.40;95.70
12115;DHT22;6121;49.810;6.418;2023-10-09T13:39:03;25.50;96.10
12115;DHT22;6121;49.810;6.418;2023-10-09T13:41:49;25.50;95.60
12115;DHT22;6121;49.810;6.418;2023-10-09T13:44:15;25.30;95.80
12115;DHT22;6121;49.810;6.418;2023-10-09T13:46:42;25.30;95.80
12115;DHT22;6121;49.810;6.418;2023-10-09T13:49:08;25.40;96.10
12115;DHT22;6121;49.810;6.418;2023-10-09T13:51:39;25.40;96.10
12115;DHT22;6121;49.810;6.418;2023-10-09T13:54:10;25.30;96.10
12115;DHT22;6121;49.810;6.418;2023-10-09T13:56:36;25.20;96.50
12115;DHT22;6121;49.810;6.418;2023-10-09T13:59:05;25.30;96.40
12115;DHT22;6121;49.810;6.418;2023-10-09T14:01:39;25.00;96.40
12115;DHT22;6121;49.810;6.418;2023-10-09T14:04:05;25.10;96.70
12115;DHT22;6121;49.810;6.418;2023-10-09T14:06:34;25.00;96.80
12115;DHT22;6121;49.810;6.418;2023-10-09T14:09:04;25.00;97.20
12115;DHT22;6121;49.810;6.418;2023-10-09T14:11:33;24.90;97.60
12115;DHT22;6121;49.810;6.418;2023-10-09T14:14:04;24.90;97.50
12115;DHT22;6121;49.810;6.418;2023-10-09T14:16:38;24.80;97.80
12115;DHT22;6121;49.810;6.418;2023-10-09T14:19:09;24.80;98.00
12115;DHT22;6121;49.810;6.418;2023-10-09T14:21:39;24.70;98.30
12115;DHT22;6121;49.810;6.418;2023-10-09T14:24:06;24.90;98.30
12115;DHT22;6121;49.810;6.418;2023-10-09T14:26:44;24.70;98.80
12115;DHT22;6121;49.810;6.418;2023-10-09T14:29:12;24.70;98.50
12115;DHT22;6121;49.810;6.418;2023-10-09T14:31:43;24.60;98.80
12115;DHT22;6121;49.810;6.418;2023-10-09T14:34:09;24.80;99.30
12115;DHT22;6121;49.810;6.418;2023-10-09T14:36:35;24.50;98.90
12115;DHT22;6121;49.810;6.418;2023-10-09T14:39:01;24.20;99.10
12115;DHT22;6121;49.810;6.418;2023-10-09T14:41:27;24.50;99.30
12115;DHT22;6121;49.810;6.418;2023-10-09T14:43:54;24.40;99.10
12115;DHT22;6121;49.810;6.418;2023-10-09T14:46:20;24.40;99.20
12115;DHT22;6121;49.810;6.418;2023-10-09T14:48:52;24.40;99.00
12115;DHT22;6121;49.810;6.418;2023-10-09T14:51:23;24.40;99.20
12115;DHT22;6121;49.810;6.418;2023-10-09T14:53:59;24.40;99.10
12115;DHT22;6121;49.810;6.418;2023-10-09T14:56:30;24.50;99.40
12115;DHT22;6121;49.810;6.418;2023-10-09T14:58:57;24.40;99.40
12115;DHT22;6121;49.810;6.418;2023-10-09T15:01:27;24.30;99.70
12115;DHT22;6121;49.810;6.418;2023-10-09T15:04:04;24.40;99.90
12115;DHT22;6121;49.810;6.418;2023-10-09T15:06:30;24.40;99.90
12115;DHT22;6121;49.810;6.418;2023-10-09T15:08:57;24.20;99.90
12115;DHT22;6121;49.810;6.418;2023-10-09T15:11:33;24.20;99.90
12115;DHT22;6121;49.810;6.418;2023-10-09T15:14:00;24.10;99.90
12115;DHT22;6121;49.810;6.418;2023-10-09T15:16:26;24.10;99.90
12115;DHT22;6121;49.810;6.418;2023-10-09T15:18:54;24.00;99.90
12115;DHT22;6121;49.810;6.418;2023-10-09T15:21:20;23.90;99.90
12115;DHT22;6121;49.810;6.418;2023-10-09T15:23:58;23.90;99.90
12115;DHT22;6121;49.810;6.418;2023-10-09T15:26:25;23.90;99.90
12115;DHT22;6121;49.810;6.418;2023-10-09T15:29:00;23.70;99.90
12115;DHT22;6121;49.810;6.418;2023-10-09T15:31:26;23.50;99.90
12115;DHT22;6121;49.810;6.418;2023-10-09T15:33:52;23.40;99.90
12115;DHT22;6121;49.810;6.418;2023-10-09T15:36:19;23.30;99.90
12115;DHT22;6121;49.810;6.418;2023-10-09T15:38:51;23.20;99.90
12115;DHT22;6121;49.810;6.418;2023-10-09T15:41:17;23.30;99.90
12115;DHT22;6121;49.810;6.418;2023-10-09T15:43:44;23.10;99.90
12115;DHT22;6121;49.810;6.418;2023-10-09T15:46:12;23.10;99.90
12115;DHT22;6121;49.810;6.418;2023-10-09T15:48:42;23.00;99.90
12115;DHT22;6121;49.810;6.418;2023-10-09T15:51:14;22.90;99.90
12115;DHT22;6121;49.810;6.418;2023-10-09T15:53:44;22.80;99.90
12115;DHT22;6121;49.810;6.418;2023-10-09T15:56:12;22.70;99.90
12115;DHT22;6121;49.810;6.418;2023-10-09T15:58:39;22.50;99.90
12115;DHT22;6121;49.810;6.418;2023-10-09T16:01:16;22.40;99.90
12115;DHT22;6121;49.810;6.418;2023-10-09T16:03:44;22.30;99.90
12115;DHT22;6121;49.810;6.418;2023-10-09T16:06:14;22.10;99.90
12115;DHT22;6121;49.810;6.418;2023-10-09T16:08:43;22.10;99.90
12115;DHT22;6121;49.810;6.418;2023-10-09T16:11:15;21.90;99.90
12115;DHT22;6121;49.810;6.418;2023-10-09T16:13:42;22.10;99.90
12115;DHT22;6121;49.810;6.418;2023-10-09T16:16:08;22.00;99.90
12115;DHT22;6121;49.810;6.418;2023-10-09T16:18:35;22.00;99.90
12115;DHT22;6121;49.810;6.418;2023-10-09T16:21:02;21.80;99.90
12115;DHT22;6121;49.810;6.418;2023-10-09T16:23:33;21.90;99.90
12115;DHT22;6121;49.810;6.418;2023-10-09T16:25:58;21.90;99.90
12115;DHT22;6121;49.810;6.418;2023-10-09T16:28:27;21.70;99.90
12115;DHT22;6121;49.810;6.418;2023-10-09T16:30:53;21.60;99.90
12115;DHT22;6121;49.810;6.418;2023-10-09T16:33:20;21.60;99.90
12115;DHT22;6121;49.810;6.418;2023-10-09T16:35:48;21.40;99.90
12115;DHT22;6121;49.810;6.418;2023-10-09T16:38:14;21.40;99.90
12115;DHT22;6121;49.810;6.418;2023-10-09T16:40:40;21.30;99.90
12115;DHT22;6121;49.810;6.418;2023-10-09T16:43:12;21.20;99.90
12115;DHT22;6121;49.810;6.418;2023-10-09T16:45:40;21.20;99.90